Time;durP1;ratioP1;P1;durP2;ratioP2;P2;SDS_P1;SDS_P2;PMS_P1;PMS_P2;Temp;Humidity;BMP_temperature;BMP_pressure;BME280_temperature;BME280_humidity;BME280_pressure;Samples;Min_cycle;Max_cycle;Signal;HPM_P1;HPM_P2
2022/03/30 00:00:48;;;;;;;0.10;0.10;;;;;;;8.56;65.89;100118.88;5047802;28;20184;-57
2022/03/30 00:03:13;;;;;;;0.20;0.20;;;;;;;8.59;66.49;100117.38;5024426;28;20037;-60
2022/03/30 00:05:39;;;;;;;0.10;0.10;;;;;;;8.66;65.88;100109.47;5041459;28;20043;-60
2022/03/30 00:08:06;;;;;;;0.10;0.10;;;;;;;8.66;65.76;100104.88;5047984;28;20491;-59
2022/03/30 00:10:32;;;;;;;0.10;0.10;;;;;;;8.65;66.47;100108.69;5048629;28;20033;-58
2022/03/30 00:12:58;;;;;;;0.30;0.30;;;;;;;8.63;66.55;100102.88;5038656;28;20037;-59
2022/03/30 00:15:24;;;;;;;0.10;0.10;;;;;;;8.60;66.55;100097.47;5028585;28;20111;-57
2022/03/30 00:17:50;;;;;;;0.10;0.10;;;;;;;8.54;66.65;100099.66;5028988;28;20037;-60
2022/03/30 00:20:16;;;;;;;0.10;0.10;;;;;;;8.53;67.18;100097.34;5028570;28;20032;-60
2022/03/30 00:22:41;;;;;;;0.10;0.10;;;;;;;8.52;67.21;100093.88;5035368;28;20037;-59
2022/03/30 00:25:09;;;;;;;0.10;0.10;;;;;;;8.49;67.82;100091.13;5048814;28;20458;-60
2022/03/30 00:27:35;;;;;;;0.10;0.10;;;;;;;8.46;68.08;100094.53;5043372;28;20061;-60
2022/03/30 00:30:00;;;;;;;0.10;0.10;;;;;;;8.44;68.83;100091.41;5010988;28;20281;-56
2022/03/30 00:32:26;;;;;;;0.10;0.10;;;;;;;8.51;68.75;100086.19;5029014;28;20124;-58
2022/03/30 00:34:52;;;;;;;0.10;0.10;;;;;;;8.44;69.25;100076.06;5028765;28;20042;-60
2022/03/30 00:37:17;;;;;;;0.10;0.10;;;;;;;8.46;68.84;100081.09;5010809;28;20028;-60
2022/03/30 00:39:43;;;;;;;0.10;0.10;;;;;;;8.40;68.85;100069.88;5027947;28;20025;-60
2022/03/30 00:42:16;;;;;;;0.10;0.10;;;;;;;8.33;68.92;100079.69;5031015;28;20033;-61
2022/03/30 00:44:43;;;;;;;0.25;0.25;;;;;;;8.37;69.03;100083.22;5048197;28;20045;-60
2022/03/30 00:47:20;;;;;;;0.10;0.10;;;;;;;8.28;69.84;100074.63;5042962;28;20025;-60
2022/03/30 00:49:46;;;;;;;0.10;0.10;;;;;;;8.27;69.48;100076.50;5026424;28;20033;-60
2022/03/30 00:52:12;;;;;;;0.10;0.10;;;;;;;8.16;70.11;100076.28;5044994;28;20036;-58
2022/03/30 00:54:41;;;;;;;0.17;0.17;;;;;;;8.19;70.20;100069.41;5049988;28;20036;-59
2022/03/30 00:57:09;;;;;;;0.20;0.20;;;;;;;8.15;70.51;100081.97;5029995;28;20060;-60
2022/03/30 00:59:34;;;;;;;0.10;0.10;;;;;;;8.11;70.99;100070.41;5028286;28;20510;-60
2022/03/30 01:02:00;;;;;;;0.10;0.10;;;;;;;8.04;70.94;100070.25;5051418;28;20033;-59
2022/03/30 01:04:27;;;;;;;0.15;0.15;;;;;;;7.99;71.51;100073.22;5051921;28;20071;-57
2022/03/30 01:06:53;;;;;;;0.20;0.20;;;;;;;7.91;71.80;100064.28;5038918;28;20032;-59
2022/03/30 01:09:18;;;;;;;0.10;0.10;;;;;;;7.87;72.10;100059.94;5049732;28;20053;-59
2022/03/30 01:11:44;;;;;;;0.10;0.10;;;;;;;7.88;72.48;100064.16;5050300;28;20067;-58
2022/03/30 01:14:12;;;;;;;0.13;0.13;;;;;;;7.81;71.99;100050.63;5051310;28;20548;-59
2022/03/30 01:16:41;;;;;;;0.10;0.10;;;;;;;7.81;72.60;100061.34;5049911;28;20090;-59
2022/03/30 01:19:08;;;;;;;0.10;0.10;;;;;;;7.82;72.72;100052.94;5050789;28;20044;-58
2022/03/30 01:21:38;;;;;;;0.43;0.43;;;;;;;7.88;73.08;100058.81;5047128;28;20044;-58
2022/03/30 01:24:05;;;;;;;0.10;0.10;;;;;;;7.89;72.77;100046.97;5052741;28;20033;-60
2022/03/30 01:26:31;;;;;;;0.20;0.20;;;;;;;7.86;72.77;100047.66;5051986;28;20104;-58
2022/03/30 01:28:56;;;;;;;0.13;0.13;;;;;;;7.89;73.34;100039.72;5034004;28;20458;-59
2022/03/30 01:34:07;;;;;;;0.10;0.10;;;;;;;7.87;73.58;100038.50;5042926;28;20044;-59
2022/03/30 01:36:35;;;;;;;0.10;0.10;;;;;;;7.84;73.94;100039.22;5038266;28;20064;-58
2022/03/30 01:39:02;;;;;;;0.10;0.10;;;;;;;7.85;73.28;100027.38;5048720;28;20472;-59
2022/03/30 01:41:29;;;;;;;0.10;0.10;;;;;;;7.82;73.28;100036.13;5032906;28;20041;-59
2022/03/30 01:43:56;;;;;;;0.10;0.10;;;;;;;7.76;73.27;100035.59;5051771;28;20087;-60
2022/03/30 01:46:21;;;;;;;0.10;0.10;;;;;;;7.80;73.67;100022.28;5051521;28;20484;-58
2022/03/30 01:48:47;;;;;;;0.50;0.50;;;;;;;7.83;73.15;100021.56;5049345;28;20036;-59
2022/03/30 01:51:13;;;;;;;0.10;0.10;;;;;;;7.85;73.95;100025.47;5046280;28;20044;-60
2022/03/30 01:53:38;;;;;;;0.10;0.10;;;;;;;7.86;73.34;100013.59;5033442;28;20033;-60
2022/03/30 01:56:04;;;;;;;0.13;0.13;;;;;;;7.83;73.54;100010.84;5056124;28;20104;-59
2022/03/30 01:58:29;;;;;;;0.10;0.10;;;;;;;7.84;74.58;100012.41;5066173;28;20040;-58
2022/03/30 02:00:57;;;;;;;0.10;0.10;;;;;;;7.83;74.44;100011.63;5047157;28;20179;-59
2022/03/30 02:03:23;;;;;;;1.27;0.30;;;;;;;7.88;74.05;100006.00;5047016;28;20029;-60
2022/03/30 02:05:48;;;;;;;0.10;0.10;;;;;;;7.85;73.84;100013.97;5045037;28;20593;-59
2022/03/30 02:08:14;;;;;;;0.10;0.10;;;;;;;7.87;73.74;100007.13;5047639;28;20459;-60
2022/03/30 02:10:39;;;;;;;0.30;0.30;;;;;;;7.85;74.73;100005.91;5050260;28;20405;-60
2022/03/30 02:13:05;;;;;;;0.10;0.10;;;;;;;7.79;74.89;100007.31;5049673;28;20043;-60
2022/03/30 02:15:31;;;;;;;0.10;0.10;;;;;;;7.81;74.39;100005.06;5030490;28;20037;-56
2022/03/30 02:17:59;;;;;;;0.17;0.17;;;;;;;7.75;74.31;99996.53;5049911;28;20029;-59
2022/03/30 02:20:25;;;;;;;0.10;0.10;;;;;;;7.74;73.91;99996.91;5033048;28;20104;-58
2022/03/30 02:22:50;;;;;;;0.30;0.30;;;;;;;7.74;74.97;100000.31;5050987;28;20546;-59
2022/03/30 02:25:16;;;;;;;0.30;0.30;;;;;;;7.69;74.78;100002.50;5045272;28;20037;-60
2022/03/30 02:27:41;;;;;;;0.10;0.10;;;;;;;7.72;74.61;100005.28;5000497;28;20039;-60
2022/03/30 02:30:08;;;;;;;0.10;0.10;;;;;;;7.71;74.72;99997.59;5051315;28;20037;-59
2022/03/30 02:32:36;;;;;;;0.20;0.20;;;;;;;7.66;75.45;100003.22;5029315;28;20045;-59
2022/03/30 02:35:05;;;;;;;0.10;0.10;;;;;;;7.67;75.04;100007.44;5041650;28;20059;-56
2022/03/30 02:37:30;;;;;;;0.17;0.17;;;;;;;7.67;75.37;100005.53;5049267;28;20028;-60
2022/03/30 02:39:56;;;;;;;0.15;0.15;;;;;;;7.64;75.43;99997.44;5050066;28;20040;-61
2022/03/30 02:42:21;;;;;;;0.15;0.15;;;;;;;7.65;74.91;99999.75;5032258;28;20033;-59
2022/03/30 02:44:47;;;;;;;0.20;0.20;;;;;;;7.67;74.78;99996.72;5037475;28;20063;-59
2022/03/30 02:47:12;;;;;;;0.10;0.10;;;;;;;7.65;75.76;100002.44;5050149;28;20041;-60
2022/03/30 02:49:38;;;;;;;0.10;0.10;;;;;;;7.64;75.38;99992.09;5031809;28;20102;-60
2022/03/30 02:52:05;;;;;;;0.10;0.10;;;;;;;7.63;75.18;99990.50;5043820;28;20052;-60
2022/03/30 02:54:30;;;;;;;0.10;0.10;;;;;;;7.65;75.54;99989.03;5030767;28;20029;-60
2022/03/30 02:56:56;;;;;;;0.10;0.10;;;;;;;7.67;75.18;99981.44;5038561;28;20067;-59
2022/03/30 02:59:22;;;;;;;0.20;0.20;;;;;;;7.67;75.44;99980.66;5044054;28;20098;-59
2022/03/30 03:01:47;;;;;;;0.10;0.10;;;;;;;7.68;76.00;99984.91;5030053;28;20033;-60
2022/03/30 03:04:12;;;;;;;0.10;0.10;;;;;;;7.58;75.99;99972.03;5012480;23;20381;-61
2022/03/30 03:06:38;;;;;;;0.10;0.10;;;;;;;7.55;77.23;99972.75;5006922;28;20026;-60
2022/03/30 03:09:03;;;;;;;0.20;0.20;;;;;;;7.57;77.08;99970.50;5009384;28;20496;-61
2022/03/30 03:11:29;;;;;;;0.10;0.10;;;;;;;7.58;76.63;99972.84;5010546;28;20038;-59
2022/03/30 03:13:55;;;;;;;0.15;0.15;;;;;;;7.52;76.14;99976.13;4979767;28;20097;-58
2022/03/30 03:16:20;;;;;;;0.10;0.10;;;;;;;7.56;75.87;99971.63;4977695;28;20117;-62
2022/03/30 03:18:46;;;;;;;0.20;0.20;;;;;;;7.58;76.34;99978.19;4989139;28;20058;-58
2022/03/30 03:21:12;;;;;;;0.20;0.20;;;;;;;7.56;76.48;99971.63;4987526;28;20102;-57
2022/03/30 03:23:37;;;;;;;0.10;0.10;;;;;;;7.55;75.88;99967.41;4989394;28;20046;-54
2022/03/30 03:26:04;;;;;;;0.10;0.10;;;;;;;7.57;76.05;99965.91;4980400;28;20061;-57
2022/03/30 03:28:30;;;;;;;0.10;0.10;;;;;;;7.59;76.59;99970.94;4989496;28;20374;-59
2022/03/30 03:30:55;;;;;;;0.10;0.10;;;;;;;7.60;76.80;99969.78;4990818;28;20432;-59
2022/03/30 03:33:20;;;;;;;0.45;0.45;;;;;;;7.57;77.46;99965.16;4981555;28;20026;-60
2022/03/30 03:35:47;;;;;;;0.20;0.20;;;;;;;7.56;76.94;99968.94;4982633;28;20061;-59
2022/03/30 03:38:12;;;;;;;0.10;0.10;;;;;;;7.59;76.87;99970.94;4984327;28;20038;-62
2022/03/30 03:40:40;;;;;;;0.10;0.10;;;;;;;7.58;77.23;99969.38;4980080;28;20042;-62
2022/03/30 03:43:06;;;;;;;0.30;0.30;;;;;;;7.53;77.07;99967.72;4973354;28;20142;-62
2022/03/30 03:45:32;;;;;;;0.10;0.10;;;;;;;7.51;77.68;99969.22;4983884;28;20115;-62
2022/03/30 03:47:57;;;;;;;0.25;0.25;;;;;;;7.56;78.24;99968.94;4975608;28;20041;-62
2022/03/30 03:50:23;;;;;;;0.30;0.30;;;;;;;7.57;78.77;99960.56;4972148;28;20038;-63
2022/03/30 03:52:49;;;;;;;0.30;0.30;;;;;;;7.59;78.78;99971.69;4987226;28;20393;-62
2022/03/30 03:55:14;;;;;;;0.10;0.10;;;;;;;7.57;79.43;99960.56;4971205;28;20417;-62
2022/03/30 03:57:41;;;;;;;0.10;0.10;;;;;;;7.53;79.38;99962.38;4977822;28;20046;-62
2022/03/30 04:00:08;;;;;;;0.10;0.10;;;;;;;7.47;79.90;99960.34;4989034;28;20026;-61
2022/03/30 04:02:41;;;;;;;0.10;0.10;;;;;;;7.46;81.17;99961.44;4990502;28;20031;-61
2022/03/30 04:05:08;;;;;;;0.20;0.20;;;;;;;7.51;80.89;99969.22;4976845;28;20053;-62
2022/03/30 04:07:34;;;;;;;0.75;0.38;;;;;;;7.44;81.43;99966.38;4999802;28;20111;-59
2022/03/30 04:10:00;;;;;;;0.10;0.10;;;;;;;7.36;81.96;99959.31;4983168;28;20070;-61
2022/03/30 04:12:25;;;;;;;0.10;0.10;;;;;;;7.34;82.51;99969.63;4990028;28;20030;-62
2022/03/30 04:14:51;;;;;;;0.20;0.20;;;;;;;7.28;83.93;99964.53;4991893;28;20377;-60
2022/03/30 04:17:16;;;;;;;0.10;0.10;;;;;;;7.30;84.65;99961.50;5008765;28;20113;-59
2022/03/30 04:19:41;;;;;;;0.10;0.10;;;;;;;7.36;84.63;99964.69;5009282;28;20423;-57
2022/03/30 04:22:07;;;;;;;0.10;0.10;;;;;;;7.29;84.65;99963.41;4988295;28;20034;-58
2022/03/30 04:24:32;;;;;;;0.10;0.10;;;;;;;7.28;86.20;99964.53;4989219;28;20045;-56
2022/03/30 04:26:58;;;;;;;0.10;0.10;;;;;;;7.32;85.94;99969.22;4987310;28;20030;-59
2022/03/30 04:29:23;;;;;;;0.20;0.20;;;;;;;7.32;86.18;99966.53;4984998;28;20089;-60
2022/03/30 04:31:49;;;;;;;0.20;0.20;;;;;;;7.26;86.82;99964.09;4983963;28;20034;-59
2022/03/30 04:34:15;;;;;;;0.10;0.10;;;;;;;7.26;86.34;99964.09;4974530;28;20110;-62
2022/03/30 04:36:40;;;;;;;0.10;0.10;;;;;;;7.26;86.86;99955.28;4979435;28;20042;-56
2022/03/30 04:39:06;;;;;;;0.10;0.10;;;;;;;7.28;86.92;99953.81;4981427;28;20038;-58
2022/03/30 04:41:31;;;;;;;0.10;0.10;;;;;;;7.31;86.96;99957.72;4979214;28;20061;-56
2022/03/30 04:43:57;;;;;;;0.10;0.10;;;;;;;7.26;87.61;99961.44;4993777;28;20030;-61
2022/03/30 04:46:22;;;;;;;0.10;0.10;;;;;;;7.23;87.72;99953.31;4992717;28;20042;-56
2022/03/30 04:48:48;;;;;;;0.10;0.10;;;;;;;7.22;88.00;99954.44;4991684;28;20030;-58
2022/03/30 04:51:13;;;;;;;0.10;0.10;;;;;;;7.17;88.47;99947.47;4991302;28;20030;-61
2022/03/30 04:53:39;;;;;;;0.20;0.20;;;;;;;7.20;89.07;99951.34;4993764;28;20369;-58
2022/03/30 04:56:05;;;;;;;0.10;0.10;;;;;;;7.18;89.04;99954.34;4987504;28;20523;-56
2022/03/30 04:58:31;;;;;;;0.20;0.20;;;;;;;7.14;89.66;99958.84;4990975;28;20034;-59
2022/03/30 05:00:56;;;;;;;0.52;0.52;;;;;;;7.13;89.88;99957.31;4987692;28;20029;-60
2022/03/30 05:03:21;;;;;;;0.10;0.10;;;;;;;7.11;89.99;99962.25;4991315;28;20109;-59
2022/03/30 05:05:47;;;;;;;0.10;0.10;;;;;;;7.10;90.43;99960.66;4992852;28;20150;-61
2022/03/30 05:08:12;;;;;;;0.10;0.10;;;;;;;7.11;89.95;99964.91;4992592;28;20044;-57
2022/03/30 05:10:38;;;;;;;0.10;0.10;;;;;;;7.10;90.41;99971.38;4993718;28;20029;-64
2022/03/30 05:13:04;;;;;;;0.10;0.10;;;;;;;7.07;89.75;99964.06;4993492;28;20049;-64
2022/03/30 05:15:30;;;;;;;0.17;0.17;;;;;;;7.06;89.96;99961.72;4987512;28;20048;-63
2022/03/30 05:17:56;;;;;;;0.10;0.10;;;;;;;6.96;90.04;99956.91;4986577;28;20027;-64
2022/03/30 05:20:21;;;;;;;0.10;0.10;;;;;;;6.98;90.21;99960.81;4992476;28;20022;-64
2022/03/30 05:22:47;;;;;;;0.10;0.10;;;;;;;7.00;90.32;99968.47;5008455;28;20128;-64
2022/03/30 05:25:14;;;;;;;0.10;0.10;;;;;;;7.09;90.08;99961.03;5001102;28;20087;-64
2022/03/30 05:27:39;;;;;;;0.10;0.10;;;;;;;7.03;89.17;99963.19;4993392;28;20048;-64
2022/03/30 05:30:07;;;;;;;0.40;0.40;;;;;;;6.95;89.83;99958.81;4980239;28;20042;-64
2022/03/30 05:32:32;;;;;;;0.10;0.10;;;;;;;6.93;89.46;99961.03;4983312;28;20042;-64
2022/03/30 05:34:57;;;;;;;0.10;0.10;;;;;;;6.99;88.82;99961.56;4992091;28;20026;-64
2022/03/30 05:37:26;;;;;;;0.10;0.10;;;;;;;6.91;89.14;99957.19;4977331;28;20073;-64
2022/03/30 05:39:52;;;;;;;0.10;0.10;;;;;;;6.91;89.18;99959.88;4989122;28;20044;-64
2022/03/30 05:42:20;;;;;;;0.10;0.10;;;;;;;6.89;89.82;99957.50;4989623;28;20118;-64
2022/03/30 05:44:45;;;;;;;0.20;0.20;;;;;;;6.94;89.86;99957.25;5000194;28;20073;-64
2022/03/30 05:47:11;;;;;;;0.13;0.13;;;;;;;6.87;89.63;99954.41;4994432;28;20077;-67
2022/03/30 05:49:37;;;;;;;0.10;0.10;;;;;;;6.86;90.02;99957.44;5003515;28;20040;-64
2022/03/30 05:52:04;;;;;;;0.10;0.10;;;;;;;6.79;90.39;99957.28;5001894;28;20036;-64
2022/03/30 05:54:30;;;;;;;0.10;0.10;;;;;;;6.84;89.46;99957.78;5011241;28;20033;-64
2022/03/30 05:57:02;;;;;;;0.10;0.10;;;;;;;6.77;90.43;99954.16;4992897;28;20037;-64
2022/03/30 05:59:40;;;;;;;0.10;0.10;;;;;;;6.79;90.62;99960.72;4989861;28;20058;-64
2022/03/30 06:02:09;;;;;;;0.10;0.10;;;;;;;6.76;91.61;99965.97;4991893;28;20045;-64
2022/03/30 06:04:35;;;;;;;0.15;0.15;;;;;;;6.76;92.41;99961.41;4979879;28;20038;-64
2022/03/30 06:07:00;;;;;;;0.17;0.17;;;;;;;6.75;92.23;99962.53;4974766;28;20034;-64
2022/03/30 06:09:27;;;;;;;0.10;0.10;;;;;;;6.78;91.46;99961.84;4979686;28;20050;-64
2022/03/30 06:11:54;;;;;;;0.10;0.10;;;;;;;6.76;91.85;99961.41;4981901;28;20073;-64
2022/03/30 06:14:20;;;;;;;0.10;0.10;;;;;;;6.76;91.51;99961.41;4986576;28;20038;-64
2022/03/30 06:16:46;;;;;;;0.35;0.35;;;;;;;6.80;92.09;99961.50;4987744;28;20032;-64
2022/03/30 06:19:13;;;;;;;0.20;0.20;;;;;;;6.82;91.26;99957.34;5000196;28;20117;-64
2022/03/30 06:21:41;;;;;;;0.10;0.10;;;;;;;6.82;91.38;99968.06;4989131;28;20114;-64
2022/03/30 06:24:09;;;;;;;0.20;0.20;;;;;;;6.85;91.71;99967.34;4993793;28;20073;-64
2022/03/30 06:26:34;;;;;;;0.10;0.10;;;;;;;6.86;91.97;99968.91;4994911;28;20358;-64
2022/03/30 06:28:59;;;;;;;0.10;0.10;;;;;;;6.92;91.93;99969.44;4991721;28;20033;-64
2022/03/30 06:31:25;;;;;;;0.10;0.10;;;;;;;6.98;92.22;99973.41;4979252;28;20045;-64
2022/03/30 06:33:50;;;;;;;0.10;0.10;;;;;;;6.94;91.44;99970.63;4972224;28;20038;-64
2022/03/30 06:36:16;;;;;;;0.10;0.10;;;;;;;6.93;91.02;99971.00;4971978;28;20034;-64
2022/03/30 06:38:42;;;;;;;0.10;0.10;;;;;;;6.95;90.47;99969.50;4979831;28;20030;-64
2022/03/30 06:41:08;;;;;;;0.00;0.00;;;;;;;6.88;90.48;99969.34;4976235;28;20082;-63
2022/03/30 06:43:36;;;;;;;0.10;0.10;;;;;;;6.83;90.33;99974.94;4984345;28;20041;-64
2022/03/30 06:46:02;;;;;;;0.10;0.10;;;;;;;6.81;90.68;99965.72;4984360;28;20042;-64
2022/03/30 06:48:28;;;;;;;0.20;0.20;;;;;;;6.85;91.63;99966.59;4978551;28;20038;-64
2022/03/30 06:50:54;;;;;;;0.38;0.30;;;;;;;6.88;91.36;99966.69;4975769;28;20038;-64
2022/03/30 06:53:19;;;;;;;2.65;0.47;;;;;;;6.93;91.93;99969.06;4973163;28;20516;-64
2022/03/30 06:55:44;;;;;;;0.10;0.10;;;;;;;6.99;91.46;99973.03;4978759;28;20069;-64
2022/03/30 06:58:11;;;;;;;0.10;0.10;;;;;;;6.99;91.49;99967.69;4975967;28;20046;-64
2022/03/30 07:00:36;;;;;;;0.10;0.10;;;;;;;7.02;92.11;99966.22;4979674;28;20035;-65
2022/03/30 07:03:03;;;;;;;0.10;0.10;;;;;;;7.06;92.27;99961.72;4981076;28;20050;-64
2022/03/30 07:05:28;;;;;;;0.17;0.17;;;;;;;7.10;92.71;99962.59;4983441;28;20034;-64
2022/03/30 07:10:38;;;;;;;0.20;0.20;;;;;;;7.19;92.51;99969.31;4993551;28;20518;-63
2022/03/30 07:13:06;;;;;;;0.10;0.10;;;;;;;7.17;91.96;99973.44;4983432;28;20117;-63
2022/03/30 07:15:31;;;;;;;0.10;0.10;;;;;;;7.10;91.17;99971.38;4980145;28;20042;-63
2022/03/30 07:17:58;;;;;;;0.10;0.10;;;;;;;7.15;91.00;99970.34;4985107;28;20030;-63
2022/03/30 07:20:26;;;;;;;0.20;0.20;;;;;;;7.20;91.27;99967.41;4979708;28;20038;-63
2022/03/30 07:22:52;;;;;;;0.10;0.10;;;;;;;7.20;90.80;99970.09;4976749;28;20541;-63
2022/03/30 07:25:20;;;;;;;0.10;0.10;;;;;;;7.25;91.36;99972.50;4978569;28;20393;-63
2022/03/30 07:27:48;;;;;;;0.10;0.10;;;;;;;7.26;91.72;99958.75;4982060;28;20633;-63
2022/03/30 07:30:15;;;;;;;0.10;0.10;;;;;;;7.30;91.58;99970.31;4983220;28;20026;-63
2022/03/30 07:32:43;;;;;;;0.10;0.10;;;;;;;7.33;91.55;99968.84;4981433;28;20041;-62
2022/03/30 07:35:10;;;;;;;0.10;0.10;;;;;;;7.42;91.20;99960.59;4982017;28;20037;-63
2022/03/30 07:37:37;;;;;;;0.95;0.40;;;;;;;7.33;90.05;99960.81;4977907;28;20070;-63
2022/03/30 07:40:05;;;;;;;0.10;0.10;;;;;;;7.33;89.86;99958.13;4979784;28;20041;-63
2022/03/30 07:42:30;;;;;;;0.10;0.10;;;;;;;7.37;91.01;99964.34;4976951;28;20034;-63
2022/03/30 07:44:56;;;;;;;0.25;0.25;;;;;;;7.41;91.23;99959.84;4976460;28;20053;-62
2022/03/30 07:47:22;;;;;;;0.10;0.10;;;;;;;7.44;91.21;99961.81;4984976;28;20030;-63
2022/03/30 07:49:48;;;;;;;0.10;0.10;;;;;;;7.50;91.32;99962.31;4982657;28;20519;-64
2022/03/30 07:52:14;;;;;;;0.10;0.10;;;;;;;7.55;90.64;99972.75;4987471;28;20400;-63
2022/03/30 07:54:41;;;;;;;0.10;0.10;;;;;;;7.47;90.90;99960.34;4976197;28;20022;-63
2022/03/30 07:57:07;;;;;;;0.25;0.25;;;;;;;7.55;90.65;99964.72;4970871;28;20045;-64
2022/03/30 07:59:32;;;;;;;0.10;0.10;;;;;;;7.51;90.19;99959.28;4989333;28;20125;-63
2022/03/30 08:01:58;;;;;;;0.10;0.10;;;;;;;7.52;90.65;99962.72;4989407;28;20536;-63
2022/03/30 08:04:24;;;;;;;0.30;0.30;;;;;;;7.55;91.09;99959.38;5000878;28;20045;-63
2022/03/30 08:06:50;;;;;;;0.22;0.22;;;;;;;7.63;91.17;99955.69;5002088;28;20497;-63
2022/03/30 08:09:16;;;;;;;0.10;0.10;;;;;;;7.64;90.14;99966.06;4985344;28;20049;-63
2022/03/30 08:11:41;;;;;;;0.13;0.13;;;;;;;7.61;89.96;99965.97;4968794;28;20038;-65
2022/03/30 08:14:06;;;;;;;0.10;0.10;;;;;;;7.57;89.46;99967.84;4970494;28;20041;-63
2022/03/30 08:16:33;;;;;;;0.10;0.10;;;;;;;7.56;90.49;99958.22;4984474;28;20433;-64
2022/03/30 08:18:59;;;;;;;0.10;0.10;;;;;;;7.57;90.12;99960.56;4998208;28;20302;-63
2022/03/30 08:24:08;;;;;;;0.10;0.10;;;;;;;7.63;90.72;99964.50;4997091;28;20109;-64
2022/03/30 08:26:34;;;;;;;0.10;0.10;;;;;;;7.68;89.76;99955.41;4985564;28;20110;-64
2022/03/30 08:29:00;;;;;;;0.10;0.10;;;;;;;7.69;89.75;99948.91;4995280;28;20125;-63
2022/03/30 08:31:25;;;;;;;0.20;0.20;;;;;;;7.71;89.99;99952.03;4992191;28;20038;-63
2022/03/30 08:33:51;;;;;;;0.20;0.20;;;;;;;7.68;89.26;99953.53;4979220;28;20031;-64
2022/03/30 08:36:16;;;;;;;0.10;0.10;;;;;;;7.78;88.75;99944.16;4985598;28;20034;-63
2022/03/30 08:38:42;;;;;;;0.10;0.10;;;;;;;7.78;89.34;99949.50;4974330;28;20031;-65
2022/03/30 08:41:08;;;;;;;0.10;0.10;;;;;;;7.89;89.62;99950.47;4977530;28;20042;-64
2022/03/30 08:43:35;;;;;;;0.10;0.10;;;;;;;8.00;89.57;99954.13;4977731;28;20046;-64
2022/03/30 08:46:02;;;;;;;0.00;0.00;;;;;;;8.04;89.22;99955.75;4978905;28;20046;-64
2022/03/30 08:48:28;;;;;;;0.10;0.10;;;;;;;8.04;87.95;99954.97;4970846;28;20042;-64
2022/03/30 08:50:56;;;;;;;0.00;0.00;;;;;;;8.11;87.79;99950.53;4970767;28;20038;-63
2022/03/30 08:53:23;;;;;;;0.10;0.10;;;;;;;8.14;87.98;99957.09;4968447;28;20449;-63
2022/03/30 08:55:49;;;;;;;0.10;0.10;;;;;;;8.19;87.58;99965.63;4970676;28;20532;-64
2022/03/30 08:58:14;;;;;;;0.10;0.10;;;;;;;8.24;87.44;99961.88;4975475;28;20034;-64
2022/03/30 09:00:40;;;;;;;0.10;0.10;;;;;;;8.23;86.85;99949.59;4977954;28;20489;-64
2022/03/30 09:03:07;;;;;;;0.10;0.10;;;;;;;8.13;85.64;99960.88;4979931;28;20496;-64
2022/03/30 09:05:37;;;;;;;0.10;0.10;;;;;;;8.16;85.50;99955.63;5050401;22;20094;-72
2022/03/30 09:08:12;;;;;;;0.10;0.10;;;;;;;8.14;86.45;99960.56;5022497;28;20041;-72
2022/03/30 09:10:40;;;;;;;0.10;0.10;;;;;;;8.08;86.95;99959.28;5024684;28;20123;-71
2022/03/30 09:13:07;;;;;;;0.10;0.10;;;;;;;8.08;86.93;99958.50;5047107;28;20070;-71
2022/03/30 09:15:34;;;;;;;0.10;0.10;;;;;;;8.09;87.24;99957.38;5046660;28;20036;-72
2022/03/30 09:18:02;;;;;;;0.03;0.03;;;;;;;8.12;87.26;99959.34;5041900;28;20511;-72
2022/03/30 09:20:28;;;;;;;0.10;0.10;;;;;;;8.14;86.97;99960.56;5028046;28;20041;-71
2022/03/30 09:22:56;;;;;;;0.00;0.00;;;;;;;8.08;87.01;99963.88;5046005;28;20048;-71
2022/03/30 09:25:29;;;;;;;0.10;0.10;;;;;;;8.12;87.17;99953.97;5028501;28;20044;-71
2022/03/30 09:27:57;;;;;;;0.08;0.08;;;;;;;8.03;86.33;99956.13;5048116;28;20047;-71
2022/03/30 09:30:24;;;;;;;0.10;0.10;;;;;;;7.95;86.73;99951.75;5029081;28;20013;-72
2022/03/30 09:32:53;;;;;;;0.10;0.10;;;;;;;8.02;87.34;99949.97;5025789;28;20028;-72
2022/03/30 09:35:31;;;;;;;0.30;0.30;;;;;;;8.09;86.71;99950.09;5030900;28;20041;-71
2022/03/30 09:38:10;;;;;;;0.10;0.10;;;;;;;8.21;87.19;99943.81;5029642;28;20056;-70
2022/03/30 09:40:38;;;;;;;0.10;0.10;;;;;;;8.34;85.61;99950.59;5049607;28;20089;-70
2022/03/30 09:43:24;;;;;;;0.10;0.10;;;;;;;8.21;85.70;99949.94;5049674;28;20033;-69
2022/03/30 09:46:13;;;;;;;0.55;0.55;;;;;;;8.28;86.79;99946.66;5047359;28;20429;-69
2022/03/30 09:48:50;;;;;;;0.10;0.10;;;;;;;8.32;86.31;99942.13;5047976;28;20753;-68
2022/03/30 09:51:18;;;;;;;0.10;0.10;;;;;;;8.37;85.08;99941.81;5032773;28;20422;-69
2022/03/30 09:53:43;;;;;;;0.10;0.10;;;;;;;8.23;84.38;99950.38;5032819;28;20037;-69
2022/03/30 09:56:15;;;;;;;0.20;0.20;;;;;;;8.36;82.84;99937.59;5052198;28;20083;-69
2022/03/30 09:58:40;;;;;;;;;;;;;;;8.27;84.04;99941.63;5047534;28;20037;-69
2022/03/30 10:01:21;;;;;;;0.10;0.10;;;;;;;8.24;84.35;99945.78;5046693;28;19983;-69
2022/03/30 10:03:50;;;;;;;0.30;0.30;;;;;;;8.28;86.18;99943.97;5046651;28;21050;-69
2022/03/30 10:06:26;;;;;;;0.10;0.10;;;;;;;8.20;85.84;99936.91;5044166;28;20032;-70
2022/03/30 10:08:55;;;;;;;0.10;0.10;;;;;;;8.20;85.65;99944.94;5033011;28;20037;-70
2022/03/30 10:11:23;;;;;;;0.20;0.20;;;;;;;8.32;86.39;99942.13;5042794;28;20111;-70
2022/03/30 10:13:51;;;;;;;0.10;0.10;;;;;;;8.38;87.65;99934.56;5045279;28;20583;-70
2022/03/30 10:16:20;;;;;;;0.10;0.10;;;;;;;8.42;85.42;99938.06;5047061;28;20068;-70
2022/03/30 10:18:47;;;;;;;0.10;0.10;;;;;;;8.49;84.44;99930.13;5045895;28;20036;-71
2022/03/30 10:21:40;;;;;;;0.10;0.10;;;;;;;8.49;84.17;99927.47;5046185;28;20036;-71
2022/03/30 10:24:26;;;;;;;0.10;0.10;;;;;;;8.51;84.24;99925.97;5045949;28;20493;-72
2022/03/30 10:26:55;;;;;;;0.10;0.10;;;;;;;8.52;84.78;99924.81;4989637;28;20593;-70
2022/03/30 10:29:24;;;;;;;0.30;0.30;;;;;;;8.62;85.37;99928.81;5029705;28;20037;-71
2022/03/30 10:32:22;;;;;;;0.10;0.10;;;;;;;8.70;85.76;99920.53;5028351;28;20083;-70
2022/03/30 10:34:58;;;;;;;0.10;0.10;;;;;;;8.83;86.16;99919.19;5044388;28;20120;-71
2022/03/30 10:37:29;;;;;;;0.10;0.10;;;;;;;8.84;85.06;99917.28;5046487;28;20044;-71
2022/03/30 10:40:04;;;;;;;0.10;0.10;;;;;;;8.79;84.01;99926.41;5027651;28;20040;-71
2022/03/30 10:42:49;;;;;;;0.10;0.10;;;;;;;8.82;82.96;99920.34;5046654;28;20037;-70
2022/03/30 10:45:33;;;;;;;0.10;0.10;;;;;;;8.85;80.94;99913.44;5027194;28;20056;-71
2022/03/30 10:48:22;;;;;;;0.10;0.10;;;;;;;8.80;82.49;99906.50;5012899;28;20037;-70
2022/03/30 10:50:48;;;;;;;0.10;0.10;;;;;;;8.81;84.14;99896.50;5044466;28;20039;-70
2022/03/30 10:53:29;;;;;;;0.10;0.10;;;;;;;8.83;84.63;99892.34;5027219;28;20033;-71
2022/03/30 10:56:15;;;;;;;0.10;0.10;;;;;;;8.85;84.42;99892.75;5026694;28;20090;-71
2022/03/30 10:58:49;;;;;;;0.10;0.10;;;;;;;8.83;83.62;99891.56;5046855;28;20044;-71
2022/03/30 11:01:36;;;;;;;0.10;0.10;;;;;;;8.82;83.58;99890.81;5048009;28;20056;-71
2022/03/30 11:04:11;;;;;;;0.20;0.20;;;;;;;8.77;83.25;99883.03;5049797;28;20041;-71
2022/03/30 11:06:37;;;;;;;0.10;0.10;;;;;;;8.75;83.96;99890.69;5032520;28;20043;-71
2022/03/30 11:09:07;;;;;;;0.10;0.10;;;;;;;8.77;84.35;99891.09;5050153;28;20037;-70
2022/03/30 11:11:42;;;;;;;0.10;0.10;;;;;;;8.81;84.19;99883.88;5047405;28;20527;-71
2022/03/30 11:14:27;;;;;;;0.10;0.10;;;;;;;8.84;83.63;99885.84;5044824;28;20121;-71
2022/03/30 11:16:55;;;;;;;0.10;0.10;;;;;;;8.84;82.93;99877.81;5044421;28;20043;-71
2022/03/30 11:19:28;;;;;;;0.22;0.22;;;;;;;8.84;83.11;99879.72;5023745;28;20624;-71
2022/03/30 11:22:15;;;;;;;0.20;0.20;;;;;;;8.94;82.74;99881.78;5028341;28;20041;-71
2022/03/30 11:24:43;;;;;;;0.10;0.10;;;;;;;9.14;82.52;99882.44;5044856;28;20136;-70
2022/03/30 11:27:08;;;;;;;0.10;0.10;;;;;;;9.08;82.17;99874.66;5036635;28;20075;-71
2022/03/30 11:29:48;;;;;;;0.20;0.20;;;;;;;9.17;81.84;99884.38;5046149;28;20060;-71
2022/03/30 11:32:30;;;;;;;0.10;0.10;;;;;;;9.11;81.71;99883.91;5004832;28;20025;-70
2022/03/30 11:34:56;;;;;;;;;;;;;;;9.05;81.52;99883.47;5024060;28;20473;-71
2022/03/30 11:37:38;;;;;;;1.35;1.13;;;;;;;9.00;80.81;99886.44;5047124;28;19912;-71
2022/03/30 11:40:10;;;;;;;0.10;0.10;;;;;;;9.06;81.12;99878.84;5043869;28;20033;-71
2022/03/30 11:42:42;;;;;;;0.10;0.10;;;;;;;9.03;80.39;99874.22;5041536;28;20120;-71
2022/03/30 11:45:13;;;;;;;0.10;0.10;;;;;;;9.01;79.70;99874.59;5046603;28;20501;-70
2022/03/30 11:47:44;;;;;;;0.10;0.10;;;;;;;9.08;80.20;99885.41;5028493;28;20579;-71
2022/03/30 11:50:14;;;;;;;;;;;;;;;9.19;78.77;99879.41;5031077;28;20497;-71
2022/03/30 11:52:40;;;;;;;0.10;0.10;;;;;;;9.26;77.77;99874.13;5047493;28;19966;-71